Terminal Aerodrome Forecast
Issued by NWS

Home | Current Version | Previous Version | Text Only | Print | Product List | Glossary On
Versions: 1 2 3 4 5 6 7 8 9 10 11 12 13 14 15 16 17 18 19 20 21 22 23
000
FTUS42 TJSJ 201140
TAFKPK
TAF
TKPK 201140Z 2012/2112 VRB05KT P6SM FEW020
     FM201400 12008KT P6SM FEW018 SCT040
     FM202100 22005KT P6SM VCSH SCT018
      AMD NOT SKED 2102/2111=

USA.gov is the U.S. government's official web portal to all federal, state and local government web resources and services.